Time;durP1;ratioP1;P1;durP2;ratioP2;P2;SDS_P1;SDS_P2;PMS_P1;PMS_P2;Temp;Humidity;BMP_temperature;BMP_pressure;BME280_temperature;BME280_humidity;BME280_pressure;Samples;Min_cycle;Max_cycle;Signal;HPM_P1;HPM_P2
2019/07/05 00:00:02;;;;;;;4.400001;4;;;;;;;14.36;57.72461;95462.41;;;;
2019/07/05 00:01:05;;;;;;;4.400001;4;;;;;;;14.36;57.72461;95462.41;;;;
2019/07/05 00:02:06;;;;;;;4.400001;4;;;;;;;14.36;57.72461;95462.41;;;;
2019/07/05 00:03:07;;;;;;;4.400001;4;;;;;;;14.36;57.72461;95462.41;;;;
2019/07/05 00:04:09;;;;;;;4.400001;4;;;;;;;14.36;57.72461;95462.41;;;;
2019/07/05 00:05:10;;;;;;;4.400001;4;;;;;;;14.36;57.72461;95462.41;;;;
2019/07/05 00:06:11;;;;;;;4.400001;4;;;;;;;14.36;57.72461;95462.41;;;;
2019/07/05 00:07:12;;;;;;;4.400001;4;;;;;;;14.36;57.72461;95462.41;;;;
2019/07/05 00:08:13;;;;;;;5.199999;4.699999;;;;;;;14.2;58.35449;95457.84;;;;
2019/07/05 00:09:15;;;;;;;5.199999;4.699999;;;;;;;14.2;58.35449;95457.84;;;;
2019/07/05 00:10:16;;;;;;;5.199999;4.699999;;;;;;;14.2;58.35449;95457.84;;;;
2019/07/05 00:11:17;;;;;;;5.199999;4.699999;;;;;;;14.2;58.35449;95457.84;;;;
2019/07/05 00:12:19;;;;;;;5.199999;4.699999;;;;;;;14.2;58.35449;95457.84;;;;
2019/07/05 00:13:20;;;;;;;5.199999;4.699999;;;;;;;14.2;58.35449;95457.84;;;;
2019/07/05 00:14:21;;;;;;;5.199999;4.699999;;;;;;;14.2;58.35449;95457.84;;;;
2019/07/05 00:15:22;;;;;;;5.199999;4.699999;;;;;;;14.2;58.35449;95457.84;;;;
2019/07/05 00:16:23;;;;;;;5.199999;4.699999;;;;;;;14.2;58.35449;95457.84;;;;
2019/07/05 00:17:24;;;;;;;5.199999;4.699999;;;;;;;14.2;58.35449;95457.84;;;;
2019/07/05 00:18:26;;;;;;;5.2;4.649999;;;;;;;14.14;59.03125;95451.93;;;;
2019/07/05 00:19:27;;;;;;;5.2;4.649999;;;;;;;14.14;59.03125;95451.93;;;;
2019/07/05 00:20:28;;;;;;;5.2;4.649999;;;;;;;14.14;59.03125;95451.93;;;;
2019/07/05 00:21:29;;;;;;;5.2;4.649999;;;;;;;14.14;59.03125;95451.93;;;;
2019/07/05 00:22:30;;;;;;;5.2;4.649999;;;;;;;14.14;59.03125;95451.93;;;;
2019/07/05 00:23:31;;;;;;;5.2;4.649999;;;;;;;14.14;59.03125;95451.93;;;;
2019/07/05 00:24:32;;;;;;;5.2;4.649999;;;;;;;14.14;59.03125;95451.93;;;;
2019/07/05 00:25:33;;;;;;;5.2;4.649999;;;;;;;14.14;59.03125;95451.93;;;;
2019/07/05 00:26:34;;;;;;;5.2;4.649999;;;;;;;14.14;59.03125;95451.93;;;;
2019/07/05 00:27:36;;;;;;;5.2;4.649999;;;;;;;14.14;59.03125;95451.93;;;;
2019/07/05 00:28:37;;;;;;;5.349999;4.75;;;;;;;14;59.67188;95448.1;;;;
2019/07/05 00:29:38;;;;;;;5.349999;4.75;;;;;;;14;59.67188;95448.1;;;;
2019/07/05 00:30:39;;;;;;;5.349999;4.75;;;;;;;14;59.67188;95448.1;;;;
2019/07/05 00:31:40;;;;;;;5.349999;4.75;;;;;;;14;59.67188;95448.1;;;;
2019/07/05 00:32:41;;;;;;;5.349999;4.75;;;;;;;14;59.67188;95448.1;;;;
2019/07/05 00:33:42;;;;;;;5.349999;4.75;;;;;;;14;59.67188;95448.1;;;;
2019/07/05 00:34:43;;;;;;;5.349999;4.75;;;;;;;14;59.67188;95448.1;;;;
2019/07/05 00:35:44;;;;;;;5.349999;4.75;;;;;;;14;59.67188;95448.1;;;;
2019/07/05 00:36:45;;;;;;;5.349999;4.75;;;;;;;14;59.67188;95448.1;;;;
2019/07/05 00:37:46;;;;;;;5.349999;4.75;;;;;;;14;59.67188;95448.1;;;;
2019/07/05 00:38:47;;;;;;;5.349999;4.75;;;;;;;14;59.67188;95448.1;;;;
2019/07/05 00:39:48;;;;;;;5.849999;4.599999;;;;;;;13.95;60.1543;95439.77;;;;
2019/07/05 00:40:50;;;;;;;5.849999;4.599999;;;;;;;13.95;60.1543;95439.77;;;;
2019/07/05 00:41:51;;;;;;;5.849999;4.599999;;;;;;;13.95;60.1543;95439.77;;;;
2019/07/05 00:42:52;;;;;;;5.849999;4.599999;;;;;;;13.95;60.1543;95439.77;;;;
2019/07/05 00:43:53;;;;;;;5.849999;4.599999;;;;;;;13.95;60.1543;95439.77;;;;
2019/07/05 00:44:54;;;;;;;5.849999;4.599999;;;;;;;13.95;60.1543;95439.77;;;;
2019/07/05 00:45:55;;;;;;;5.849999;4.599999;;;;;;;13.95;60.1543;95439.77;;;;
2019/07/05 00:46:56;;;;;;;5.849999;4.599999;;;;;;;13.95;60.1543;95439.77;;;;
2019/07/05 00:47:57;;;;;;;5.849999;4.599999;;;;;;;13.95;60.1543;95439.77;;;;
2019/07/05 00:48:58;;;;;;;5.849999;4.599999;;;;;;;13.95;60.1543;95439.77;;;;
2019/07/05 00:50:00;;;;;;;5.849999;4.599999;;;;;;;13.95;60.1543;95439.77;;;;
2019/07/05 00:51:01;;;;;;;5.849999;4.599999;;;;;;;13.95;60.1543;95439.77;;;;
2019/07/05 00:52:02;;;;;;;5.849999;4.599999;;;;;;;13.95;60.1543;95439.77;;;;
2019/07/05 00:53:03;;;;;;;5.849999;4.599999;;;;;;;13.95;60.1543;95439.77;;;;
2019/07/05 00:54:04;;;;;;;5.849999;4.599999;;;;;;;13.95;60.1543;95439.77;;;;
2019/07/05 00:55:05;;;;;;;5.849999;4.599999;;;;;;;13.95;60.1543;95439.77;;;;
2019/07/05 00:56:08;;;;;;;5.849999;4.599999;;;;;;;13.95;60.1543;95439.77;;;;
2019/07/05 00:57:09;;;;;;;5.849999;4.599999;;;;;;;13.95;60.1543;95439.77;;;;
2019/07/05 00:58:10;;;;;;;5.849999;4.599999;;;;;;;13.95;60.1543;95439.77;;;;
2019/07/05 00:59:11;;;;;;;5.849999;4.599999;;;;;;;13.95;60.1543;95439.77;;;;
2019/07/05 01:00:12;;;;;;;5.849999;4.599999;;;;;;;13.95;60.1543;95439.77;;;;
2019/07/05 01:01:14;;;;;;;4.950001;4.349999;;;;;;;13.87;60.94434;95421.2;;;;
2019/07/05 01:02:15;;;;;;;4.950001;4.349999;;;;;;;13.87;60.94434;95421.2;;;;
2019/07/05 01:03:16;;;;;;;4.950001;4.349999;;;;;;;13.87;60.94434;95421.2;;;;
2019/07/05 01:04:18;;;;;;;4.950001;4.349999;;;;;;;13.87;60.94434;95421.2;;;;
2019/07/05 01:05:19;;;;;;;4.950001;4.349999;;;;;;;13.87;60.94434;95421.2;;;;
2019/07/05 01:06:20;;;;;;;4.950001;4.349999;;;;;;;13.87;60.94434;95421.2;;;;
2019/07/05 01:07:21;;;;;;;4.950001;4.349999;;;;;;;13.87;60.94434;95421.2;;;;
2019/07/05 01:08:22;;;;;;;4.950001;4.349999;;;;;;;13.87;60.94434;95421.2;;;;
2019/07/05 01:09:23;;;;;;;4.950001;4.349999;;;;;;;13.87;60.94434;95421.2;;;;
2019/07/05 01:10:24;;;;;;;4.950001;4.349999;;;;;;;13.87;60.94434;95421.2;;;;
2019/07/05 01:11:26;;;;;;;6.499999;4.6;;;;;;;13.72;61.34473;95415.19;;;;
2019/07/05 01:12:27;;;;;;;6.499999;4.6;;;;;;;13.72;61.34473;95415.19;;;;
2019/07/05 01:13:28;;;;;;;6.499999;4.6;;;;;;;13.72;61.34473;95415.19;;;;
2019/07/05 01:14:30;;;;;;;6.499999;4.6;;;;;;;13.72;61.34473;95415.19;;;;
2019/07/05 01:15:31;;;;;;;6.499999;4.6;;;;;;;13.72;61.34473;95415.19;;;;
2019/07/05 01:16:32;;;;;;;6.499999;4.6;;;;;;;13.72;61.34473;95415.19;;;;
2019/07/05 01:17:33;;;;;;;6.499999;4.6;;;;;;;13.72;61.34473;95415.19;;;;
2019/07/05 01:18:35;;;;;;;6.499999;4.6;;;;;;;13.72;61.34473;95415.19;;;;
2019/07/05 01:19:36;;;;;;;6.499999;4.6;;;;;;;13.72;61.34473;95415.19;;;;
2019/07/05 01:20:37;;;;;;;6.499999;4.6;;;;;;;13.72;61.34473;95415.19;;;;
2019/07/05 01:21:39;;;;;;;6.499999;4.6;;;;;;;13.72;61.34473;95415.19;;;;
2019/07/05 01:22:41;;;;;;;5.05;4.3;;;;;;;13.68;61.4248;95406.84;;;;
2019/07/05 01:23:42;;;;;;;5.05;4.3;;;;;;;13.68;61.4248;95406.84;;;;
2019/07/05 01:24:43;;;;;;;5.05;4.3;;;;;;;13.68;61.4248;95406.84;;;;
2019/07/05 01:25:49;;;;;;;5.05;4.3;;;;;;;13.68;61.4248;95406.84;;;;
2019/07/05 01:26:50;;;;;;;5.05;4.3;;;;;;;13.68;61.4248;95406.84;;;;
2019/07/05 01:27:51;;;;;;;5.05;4.3;;;;;;;13.68;61.4248;95406.84;;;;
2019/07/05 01:28:52;;;;;;;5.05;4.3;;;;;;;13.68;61.4248;95406.84;;;;
2019/07/05 01:29:53;;;;;;;5.05;4.3;;;;;;;13.68;61.4248;95406.84;;;;
2019/07/05 01:30:54;;;;;;;5.05;4.3;;;;;;;13.68;61.4248;95406.84;;;;
2019/07/05 01:31:56;;;;;;;5.05;4.3;;;;;;;13.68;61.4248;95406.84;;;;
2019/07/05 01:32:57;;;;;;;4.599999;4.2;;;;;;;13.55;61.625;95398.95;;;;
2019/07/05 01:33:58;;;;;;;4.599999;4.2;;;;;;;13.55;61.625;95398.95;;;;
2019/07/05 01:34:59;;;;;;;4.599999;4.2;;;;;;;13.55;61.625;95398.95;;;;
2019/07/05 01:36:00;;;;;;;4.599999;4.2;;;;;;;13.55;61.625;95398.95;;;;
2019/07/05 01:37:01;;;;;;;4.599999;4.2;;;;;;;13.55;61.625;95398.95;;;;
2019/07/05 01:38:03;;;;;;;4.599999;4.2;;;;;;;13.55;61.625;95398.95;;;;
2019/07/05 01:39:04;;;;;;;4.599999;4.2;;;;;;;13.55;61.625;95398.95;;;;
2019/07/05 01:40:05;;;;;;;4.599999;4.2;;;;;;;13.55;61.625;95398.95;;;;
2019/07/05 01:41:06;;;;;;;4.599999;4.2;;;;;;;13.55;61.625;95398.95;;;;
2019/07/05 01:42:07;;;;;;;4.599999;4.2;;;;;;;13.55;61.625;95398.95;;;;
2019/07/05 01:43:08;;;;;;;4.95;4.45;;;;;;;13.47;62.0332;95391.8;;;;
2019/07/05 01:44:10;;;;;;;4.95;4.45;;;;;;;13.47;62.0332;95391.8;;;;
2019/07/05 01:45:11;;;;;;;4.95;4.45;;;;;;;13.47;62.0332;95391.8;;;;
2019/07/05 01:46:12;;;;;;;4.95;4.45;;;;;;;13.47;62.0332;95391.8;;;;
2019/07/05 01:47:13;;;;;;;4.95;4.45;;;;;;;13.47;62.0332;95391.8;;;;
2019/07/05 01:48:15;;;;;;;4.95;4.45;;;;;;;13.47;62.0332;95391.8;;;;
2019/07/05 01:49:16;;;;;;;4.95;4.45;;;;;;;13.47;62.0332;95391.8;;;;
2019/07/05 01:50:17;;;;;;;4.95;4.45;;;;;;;13.47;62.0332;95391.8;;;;
2019/07/05 01:51:18;;;;;;;4.95;4.45;;;;;;;13.47;62.0332;95391.8;;;;
2019/07/05 01:52:19;;;;;;;4.95;4.45;;;;;;;13.47;62.0332;95391.8;;;;
2019/07/05 01:53:20;;;;;;;4.95;4.45;;;;;;;13.47;62.0332;95391.8;;;;
2019/07/05 01:54:21;;;;;;;6;4.45;;;;;;;13.34;62.44727;95379.53;;;;
2019/07/05 01:55:23;;;;;;;6;4.45;;;;;;;13.34;62.44727;95379.53;;;;
2019/07/05 01:56:24;;;;;;;6;4.45;;;;;;;13.34;62.44727;95379.53;;;;
2019/07/05 01:57:25;;;;;;;6;4.45;;;;;;;13.34;62.44727;95379.53;;;;
2019/07/05 01:58:26;;;;;;;6;4.45;;;;;;;13.34;62.44727;95379.53;;;;
2019/07/05 01:59:27;;;;;;;6;4.45;;;;;;;13.34;62.44727;95379.53;;;;
2019/07/05 02:00:28;;;;;;;6;4.45;;;;;;;13.34;62.44727;95379.53;;;;
2019/07/05 02:01:30;;;;;;;6;4.45;;;;;;;13.34;62.44727;95379.53;;;;
2019/07/05 02:02:31;;;;;;;6;4.45;;;;;;;13.34;62.44727;95379.53;;;;
2019/07/05 02:03:32;;;;;;;6;4.45;;;;;;;13.34;62.44727;95379.53;;;;
2019/07/05 02:04:34;;;;;;;6.150001;4.7;;;;;;;13.31;62.83203;95381.81;;;;
2019/07/05 02:05:35;;;;;;;6.150001;4.7;;;;;;;13.31;62.83203;95381.81;;;;
2019/07/05 02:06:36;;;;;;;6.150001;4.7;;;;;;;13.31;62.83203;95381.81;;;;
2019/07/05 02:07:37;;;;;;;6.150001;4.7;;;;;;;13.31;62.83203;95381.81;;;;
2019/07/05 02:08:38;;;;;;;6.150001;4.7;;;;;;;13.31;62.83203;95381.81;;;;
2019/07/05 02:09:39;;;;;;;6.150001;4.7;;;;;;;13.31;62.83203;95381.81;;;;
2019/07/05 02:10:41;;;;;;;6.150001;4.7;;;;;;;13.31;62.83203;95381.81;;;;
2019/07/05 02:11:43;;;;;;;6.150001;4.7;;;;;;;13.31;62.83203;95381.81;;;;
2019/07/05 02:12:44;;;;;;;6.150001;4.7;;;;;;;13.31;62.83203;95381.81;;;;
2019/07/05 02:13:45;;;;;;;6.150001;4.7;;;;;;;13.31;62.83203;95381.81;;;;
2019/07/05 02:14:46;;;;;;;6.150001;4.7;;;;;;;13.31;62.83203;95381.81;;;;
2019/07/05 02:15:47;;;;;;;5.3;4.75;;;;;;;13.21;63.48828;95365.8;;;;
2019/07/05 02:16:48;;;;;;;5.3;4.75;;;;;;;13.21;63.48828;95365.8;;;;
2019/07/05 02:17:49;;;;;;;5.3;4.75;;;;;;;13.21;63.48828;95365.8;;;;
2019/07/05 02:18:51;;;;;;;5.3;4.75;;;;;;;13.21;63.48828;95365.8;;;;
2019/07/05 02:19:52;;;;;;;5.3;4.75;;;;;;;13.21;63.48828;95365.8;;;;
2019/07/05 02:20:53;;;;;;;5.3;4.75;;;;;;;13.21;63.48828;95365.8;;;;
2019/07/05 02:21:54;;;;;;;5.3;4.75;;;;;;;13.21;63.48828;95365.8;;;;
2019/07/05 02:22:55;;;;;;;5.3;4.75;;;;;;;13.21;63.48828;95365.8;;;;
2019/07/05 02:23:56;;;;;;;5.3;4.75;;;;;;;13.21;63.48828;95365.8;;;;
2019/07/05 02:24:57;;;;;;;5.3;4.75;;;;;;;13.21;63.48828;95365.8;;;;
2019/07/05 02:25:58;;;;;;;6.45;5.6;;;;;;;13.21;63.99609;95360.79;;;;
2019/07/05 02:27:00;;;;;;;6.45;5.6;;;;;;;13.21;63.99609;95360.79;;;;
2019/07/05 02:28:01;;;;;;;6.45;5.6;;;;;;;13.21;63.99609;95360.79;;;;
2019/07/05 02:29:02;;;;;;;6.45;5.6;;;;;;;13.21;63.99609;95360.79;;;;
2019/07/05 02:30:03;;;;;;;6.45;5.6;;;;;;;13.21;63.99609;95360.79;;;;
2019/07/05 02:31:05;;;;;;;6.45;5.6;;;;;;;13.21;63.99609;95360.79;;;;
2019/07/05 02:32:06;;;;;;;6.45;5.6;;;;;;;13.21;63.99609;95360.79;;;;
2019/07/05 02:33:07;;;;;;;6.45;5.6;;;;;;;13.21;63.99609;95360.79;;;;
2019/07/05 02:34:09;;;;;;;6.45;5.6;;;;;;;13.21;63.99609;95360.79;;;;
2019/07/05 02:35:10;;;;;;;6.45;5.6;;;;;;;13.21;63.99609;95360.79;;;;
2019/07/05 02:36:11;;;;;;;6;5.4;;;;;;;13.18;64.68262;95363.59;;;;
2019/07/05 02:37:13;;;;;;;6;5.4;;;;;;;13.18;64.68262;95363.59;;;;
2019/07/05 02:38:14;;;;;;;6;5.4;;;;;;;13.18;64.68262;95363.59;;;;
2019/07/05 02:39:15;;;;;;;6;5.4;;;;;;;13.18;64.68262;95363.59;;;;
2019/07/05 02:40:16;;;;;;;6;5.4;;;;;;;13.18;64.68262;95363.59;;;;
2019/07/05 02:41:19;;;;;;;6;5.4;;;;;;;13.18;64.68262;95363.59;;;;
2019/07/05 02:42:20;;;;;;;6;5.4;;;;;;;13.18;64.68262;95363.59;;;;
2019/07/05 02:43:21;;;;;;;6;5.4;;;;;;;13.18;64.68262;95363.59;;;;
2019/07/05 02:44:22;;;;;;;6;5.4;;;;;;;13.18;64.68262;95363.59;;;;
2019/07/05 02:45:24;;;;;;;6;5.4;;;;;;;13.18;64.68262;95363.59;;;;
2019/07/05 02:46:25;;;;;;;6;5.4;;;;;;;13.18;64.68262;95363.59;;;;
2019/07/05 02:47:26;;;;;;;6.950001;5.9;;;;;;;13.21;65.35645;95360.79;;;;
2019/07/05 02:48:27;;;;;;;6.950001;5.9;;;;;;;13.21;65.35645;95360.79;;;;
2019/07/05 02:49:29;;;;;;;6.950001;5.9;;;;;;;13.21;65.35645;95360.79;;;;
2019/07/05 02:50:30;;;;;;;6.950001;5.9;;;;;;;13.21;65.35645;95360.79;;;;
2019/07/05 02:51:31;;;;;;;6.950001;5.9;;;;;;;13.21;65.35645;95360.79;;;;
2019/07/05 02:52:32;;;;;;;6.950001;5.9;;;;;;;13.21;65.35645;95360.79;;;;
2019/07/05 02:53:33;;;;;;;6.950001;5.9;;;;;;;13.21;65.35645;95360.79;;;;
2019/07/05 02:54:34;;;;;;;6.950001;5.9;;;;;;;13.21;65.35645;95360.79;;;;
2019/07/05 02:55:35;;;;;;;6.950001;5.9;;;;;;;13.21;65.35645;95360.79;;;;
2019/07/05 02:56:36;;;;;;;6.950001;5.9;;;;;;;13.21;65.35645;95360.79;;;;
2019/07/05 02:57:37;;;;;;;6.449999;5.65;;;;;;;13.2;66.1416;95363.76;;;;
2019/07/05 02:58:38;;;;;;;6.449999;5.65;;;;;;;13.2;66.1416;95363.76;;;;
2019/07/05 02:59:40;;;;;;;6.449999;5.65;;;;;;;13.2;66.1416;95363.76;;;;
2019/07/05 03:00:41;;;;;;;6.449999;5.65;;;;;;;13.2;66.1416;95363.76;;;;
2019/07/05 03:01:42;;;;;;;6.449999;5.65;;;;;;;13.2;66.1416;95363.76;;;;
2019/07/05 03:02:43;;;;;;;6.449999;5.65;;;;;;;13.2;66.1416;95363.76;;;;
2019/07/05 03:03:44;;;;;;;6.449999;5.65;;;;;;;13.2;66.1416;95363.76;;;;
2019/07/05 03:04:45;;;;;;;6.449999;5.65;;;;;;;13.2;66.1416;95363.76;;;;
2019/07/05 03:05:46;;;;;;;6.449999;5.65;;;;;;;13.2;66.1416;95363.76;;;;
2019/07/05 03:06:47;;;;;;;6.449999;5.65;;;;;;;13.2;66.1416;95363.76;;;;
2019/07/05 03:07:48;;;;;;;6.350001;5.75;;;;;;;13.21;66.66211;95363.5;;;;
2019/07/05 03:08:49;;;;;;;6.350001;5.75;;;;;;;13.21;66.66211;95363.5;;;;
2019/07/05 03:09:50;;;;;;;6.350001;5.75;;;;;;;13.21;66.66211;95363.5;;;;
2019/07/05 03:10:52;;;;;;;6.350001;5.75;;;;;;;13.21;66.66211;95363.5;;;;
2019/07/05 03:11:53;;;;;;;6.350001;5.75;;;;;;;13.21;66.66211;95363.5;;;;
2019/07/05 03:12:54;;;;;;;6.350001;5.75;;;;;;;13.21;66.66211;95363.5;;;;
2019/07/05 03:13:55;;;;;;;6.350001;5.75;;;;;;;13.21;66.66211;95363.5;;;;
2019/07/05 03:14:56;;;;;;;6.350001;5.75;;;;;;;13.21;66.66211;95363.5;;;;
2019/07/05 03:15:57;;;;;;;6.350001;5.75;;;;;;;13.21;66.66211;95363.5;;;;
2019/07/05 03:16:58;;;;;;;6.350001;5.75;;;;;;;13.21;66.66211;95363.5;;;;
2019/07/05 03:17:59;;;;;;;6.350001;5.75;;;;;;;13.21;66.66211;95363.5;;;;
2019/07/05 03:19:00;;;;;;;8.199999;5.8;;;;;;;13.18;67.2832;95359.53;;;;
2019/07/05 03:20:03;;;;;;;8.199999;5.8;;;;;;;13.18;67.2832;95359.53;;;;
2019/07/05 03:21:04;;;;;;;8.199999;5.8;;;;;;;13.18;67.2832;95359.53;;;;
2019/07/05 03:22:06;;;;;;;8.199999;5.8;;;;;;;13.18;67.2832;95359.53;;;;
2019/07/05 03:23:07;;;;;;;8.199999;5.8;;;;;;;13.18;67.2832;95359.53;;;;
2019/07/05 03:24:08;;;;;;;8.199999;5.8;;;;;;;13.18;67.2832;95359.53;;;;
2019/07/05 03:25:09;;;;;;;8.199999;5.8;;;;;;;13.18;67.2832;95359.53;;;;
2019/07/05 03:26:10;;;;;;;8.199999;5.8;;;;;;;13.18;67.2832;95359.53;;;;
2019/07/05 03:27:11;;;;;;;8.199999;5.8;;;;;;;13.18;67.2832;95359.53;;;;
2019/07/05 03:28:12;;;;;;;8.199999;5.8;;;;;;;13.18;67.2832;95359.53;;;;
2019/07/05 03:29:13;;;;;;;6.649999;6.05;;;;;;;13.22;67.87207;95362.03;;;;
2019/07/05 03:30:14;;;;;;;6.649999;6.05;;;;;;;13.22;67.87207;95362.03;;;;
2019/07/05 03:31:17;;;;;;;6.649999;6.05;;;;;;;13.22;67.87207;95362.03;;;;
2019/07/05 03:32:18;;;;;;;6.649999;6.05;;;;;;;13.22;67.87207;95362.03;;;;
2019/07/05 03:33:19;;;;;;;6.649999;6.05;;;;;;;13.22;67.87207;95362.03;;;;
2019/07/05 03:34:20;;;;;;;6.649999;6.05;;;;;;;13.22;67.87207;95362.03;;;;
2019/07/05 03:35:21;;;;;;;6.649999;6.05;;;;;;;13.22;67.87207;95362.03;;;;
2019/07/05 03:36:22;;;;;;;6.649999;6.05;;;;;;;13.22;67.87207;95362.03;;;;
2019/07/05 03:37:23;;;;;;;6.649999;6.05;;;;;;;13.22;67.87207;95362.03;;;;
2019/07/05 03:38:24;;;;;;;6.649999;6.05;;;;;;;13.22;67.87207;95362.03;;;;
2019/07/05 03:39:25;;;;;;;6.649999;6.05;;;;;;;13.22;67.87207;95362.03;;;;
2019/07/05 03:40:27;;;;;;;7;6.3;;;;;;;13.2;68.16016;95358.75;;;;
2019/07/05 03:41:28;;;;;;;7;6.3;;;;;;;13.2;68.16016;95358.75;;;;
2019/07/05 03:42:29;;;;;;;7;6.3;;;;;;;13.2;68.16016;95358.75;;;;
2019/07/05 03:43:30;;;;;;;7;6.3;;;;;;;13.2;68.16016;95358.75;;;;
2019/07/05 03:44:31;;;;;;;7;6.3;;;;;;;13.2;68.16016;95358.75;;;;
2019/07/05 03:45:32;;;;;;;7;6.3;;;;;;;13.2;68.16016;95358.75;;;;
2019/07/05 03:46:33;;;;;;;7;6.3;;;;;;;13.2;68.16016;95358.75;;;;
2019/07/05 03:47:34;;;;;;;7;6.3;;;;;;;13.2;68.16016;95358.75;;;;
2019/07/05 03:48:36;;;;;;;7;6.3;;;;;;;13.2;68.16016;95358.75;;;;
2019/07/05 03:49:37;;;;;;;7;6.3;;;;;;;13.2;68.16016;95358.75;;;;
2019/07/05 03:50:38;;;;;;;6.400001;5.800001;;;;;;;13.32;68.49219;95358.09;;;;
2019/07/05 03:51:39;;;;;;;6.400001;5.800001;;;;;;;13.32;68.49219;95358.09;;;;
2019/07/05 03:52:40;;;;;;;6.400001;5.800001;;;;;;;13.32;68.49219;95358.09;;;;
2019/07/05 03:53:41;;;;;;;6.400001;5.800001;;;;;;;13.32;68.49219;95358.09;;;;
2019/07/05 03:54:42;;;;;;;6.400001;5.800001;;;;;;;13.32;68.49219;95358.09;;;;
2019/07/05 03:55:43;;;;;;;6.400001;5.800001;;;;;;;13.32;68.49219;95358.09;;;;
2019/07/05 03:56:44;;;;;;;6.400001;5.800001;;;;;;;13.32;68.49219;95358.09;;;;
2019/07/05 03:57:45;;;;;;;6.400001;5.800001;;;;;;;13.32;68.49219;95358.09;;;;
2019/07/05 03:58:46;;;;;;;6.400001;5.800001;;;;;;;13.32;68.49219;95358.09;;;;
2019/07/05 03:59:47;;;;;;;6.400001;5.800001;;;;;;;13.32;68.49219;95358.09;;;;
2019/07/05 04:00:48;;;;;;;6.3;5.749999;;;;;;;13.39;68.78125;95363.32;;;;
2019/07/05 04:01:50;;;;;;;6.3;5.749999;;;;;;;13.39;68.78125;95363.32;;;;
2019/07/05 04:02:51;;;;;;;6.3;5.749999;;;;;;;13.39;68.78125;95363.32;;;;
2019/07/05 04:03:52;;;;;;;6.3;5.749999;;;;;;;13.39;68.78125;95363.32;;;;
2019/07/05 04:04:53;;;;;;;6.3;5.749999;;;;;;;13.39;68.78125;95363.32;;;;
2019/07/05 04:05:54;;;;;;;6.3;5.749999;;;;;;;13.39;68.78125;95363.32;;;;
2019/07/05 04:06:55;;;;;;;6.3;5.749999;;;;;;;13.39;68.78125;95363.32;;;;
2019/07/05 04:07:56;;;;;;;6.3;5.749999;;;;;;;13.39;68.78125;95363.32;;;;
2019/07/05 04:08:57;;;;;;;6.3;5.749999;;;;;;;13.39;68.78125;95363.32;;;;
2019/07/05 04:09:59;;;;;;;6.3;5.749999;;;;;;;13.39;68.78125;95363.32;;;;
2019/07/05 04:11:00;;;;;;;6.3;5.749999;;;;;;;13.39;68.78125;95363.32;;;;
2019/07/05 04:12:01;;;;;;;6.9;5.9;;;;;;;13.47;68.93457;95361.02;;;;
2019/07/05 04:13:02;;;;;;;6.9;5.9;;;;;;;13.47;68.93457;95361.02;;;;
2019/07/05 04:14:03;;;;;;;6.9;5.9;;;;;;;13.47;68.93457;95361.02;;;;
2019/07/05 04:15:04;;;;;;;6.9;5.9;;;;;;;13.47;68.93457;95361.02;;;;
2019/07/05 04:16:06;;;;;;;6.9;5.9;;;;;;;13.47;68.93457;95361.02;;;;
2019/07/05 04:17:07;;;;;;;6.9;5.9;;;;;;;13.47;68.93457;95361.02;;;;
2019/07/05 04:18:08;;;;;;;6.9;5.9;;;;;;;13.47;68.93457;95361.02;;;;
2019/07/05 04:19:09;;;;;;;6.9;5.9;;;;;;;13.47;68.93457;95361.02;;;;
2019/07/05 04:20:10;;;;;;;6.9;5.9;;;;;;;13.47;68.93457;95361.02;;;;
2019/07/05 04:21:13;;;;;;;6.9;5.9;;;;;;;13.47;68.93457;95361.02;;;;
2019/07/05 04:22:14;;;;;;;6.199999;5.699999;;;;;;;13.47;69.36816;95360.05;;;;
2019/07/05 04:23:15;;;;;;;6.199999;5.699999;;;;;;;13.47;69.36816;95360.05;;;;
2019/07/05 04:24:16;;;;;;;6.199999;5.699999;;;;;;;13.47;69.36816;95360.05;;;;
2019/07/05 04:25:17;;;;;;;6.199999;5.699999;;;;;;;13.47;69.36816;95360.05;;;;
2019/07/05 04:26:18;;;;;;;6.199999;5.699999;;;;;;;13.47;69.36816;95360.05;;;;
2019/07/05 04:27:19;;;;;;;6.199999;5.699999;;;;;;;13.47;69.36816;95360.05;;;;
2019/07/05 04:28:20;;;;;;;6.199999;5.699999;;;;;;;13.47;69.36816;95360.05;;;;
2019/07/05 04:29:21;;;;;;;6.199999;5.699999;;;;;;;13.47;69.36816;95360.05;;;;
2019/07/05 04:30:22;;;;;;;6.199999;5.699999;;;;;;;13.47;69.36816;95360.05;;;;
2019/07/05 04:31:25;;;;;;;6.199999;5.699999;;;;;;;13.47;69.36816;95360.05;;;;
2019/07/05 04:32:26;;;;;;;6.199999;5.699999;;;;;;;13.47;69.36816;95360.05;;;;
2019/07/05 04:33:27;;;;;;;6.2;5.55;;;;;;;13.63;69.67188;95373.28;;;;
2019/07/05 04:34:28;;;;;;;6.2;5.55;;;;;;;13.63;69.67188;95373.28;;;;
2019/07/05 04:35:29;;;;;;;6.2;5.55;;;;;;;13.63;69.67188;95373.28;;;;
2019/07/05 04:36:30;;;;;;;6.2;5.55;;;;;;;13.63;69.67188;95373.28;;;;
2019/07/05 04:37:31;;;;;;;6.2;5.55;;;;;;;13.63;69.67188;95373.28;;;;
2019/07/05 04:38:33;;;;;;;6.2;5.55;;;;;;;13.63;69.67188;95373.28;;;;
2019/07/05 04:39:34;;;;;;;6.2;5.55;;;;;;;13.63;69.67188;95373.28;;;;
2019/07/05 04:40:35;;;;;;;6.2;5.55;;;;;;;13.63;69.67188;95373.28;;;;
2019/07/05 04:41:36;;;;;;;6.2;5.55;;;;;;;13.63;69.67188;95373.28;;;;
2019/07/05 04:42:37;;;;;;;6.2;5.55;;;;;;;13.63;69.67188;95373.28;;;;
2019/07/05 04:43:38;;;;;;;6.45;5.85;;;;;;;13.87;69.8418;95377.76;;;;
2019/07/05 04:44:39;;;;;;;6.45;5.85;;;;;;;13.87;69.8418;95377.76;;;;
2019/07/05 04:45:40;;;;;;;6.45;5.85;;;;;;;13.87;69.8418;95377.76;;;;
2019/07/05 04:46:41;;;;;;;6.45;5.85;;;;;;;13.87;69.8418;95377.76;;;;
2019/07/05 04:47:42;;;;;;;6.45;5.85;;;;;;;13.87;69.8418;95377.76;;;;
2019/07/05 04:48:43;;;;;;;6.45;5.85;;;;;;;13.87;69.8418;95377.76;;;;
2019/07/05 04:49:45;;;;;;;6.45;5.85;;;;;;;13.87;69.8418;95377.76;;;;
2019/07/05 04:50:46;;;;;;;6.45;5.85;;;;;;;13.87;69.8418;95377.76;;;;
2019/07/05 04:51:47;;;;;;;6.45;5.85;;;;;;;13.87;69.8418;95377.76;;;;
2019/07/05 04:52:48;;;;;;;6.45;5.85;;;;;;;13.87;69.8418;95377.76;;;;
2019/07/05 04:53:49;;;;;;;6.849999;6.2;;;;;;;14.4;69.57813;95382.04;;;;
2019/07/05 04:54:50;;;;;;;6.849999;6.2;;;;;;;14.4;69.57813;95382.04;;;;
2019/07/05 04:55:51;;;;;;;6.849999;6.2;;;;;;;14.4;69.57813;95382.04;;;;
2019/07/05 04:56:52;;;;;;;6.849999;6.2;;;;;;;14.4;69.57813;95382.04;;;;
2019/07/05 04:57:53;;;;;;;6.849999;6.2;;;;;;;14.4;69.57813;95382.04;;;;
2019/07/05 04:58:54;;;;;;;6.849999;6.2;;;;;;;14.4;69.57813;95382.04;;;;
2019/07/05 04:59:55;;;;;;;6.849999;6.2;;;;;;;14.4;69.57813;95382.04;;;;
2019/07/05 05:00:56;;;;;;;6.849999;6.2;;;;;;;14.4;69.57813;95382.04;;;;
2019/07/05 05:01:57;;;;;;;6.849999;6.2;;;;;;;14.4;69.57813;95382.04;;;;
2019/07/05 05:02:58;;;;;;;6.849999;6.2;;;;;;;14.4;69.57813;95382.04;;;;
2019/07/05 05:04:00;;;;;;;6.849999;6.2;;;;;;;14.4;69.57813;95382.04;;;;
2019/07/05 05:05:01;;;;;;;6.699999;6.1;;;;;;;14.98;69.19336;95375.75;;;;
2019/07/05 05:06:02;;;;;;;6.699999;6.1;;;;;;;14.98;69.19336;95375.75;;;;
2019/07/05 05:07:03;;;;;;;6.699999;6.1;;;;;;;14.98;69.19336;95375.75;;;;
2019/07/05 05:08:04;;;;;;;6.699999;6.1;;;;;;;14.98;69.19336;95375.75;;;;
2019/07/05 05:09:05;;;;;;;6.699999;6.1;;;;;;;14.98;69.19336;95375.75;;;;
2019/07/05 05:10:07;;;;;;;6.699999;6.1;;;;;;;14.98;69.19336;95375.75;;;;
2019/07/05 05:11:08;;;;;;;6.699999;6.1;;;;;;;14.98;69.19336;95375.75;;;;
2019/07/05 05:12:09;;;;;;;6.699999;6.1;;;;;;;14.98;69.19336;95375.75;;;;
2019/07/05 05:13:10;;;;;;;6.699999;6.1;;;;;;;14.98;69.19336;95375.75;;;;
2019/07/05 05:14:12;;;;;;;6.699999;6.1;;;;;;;14.98;69.19336;95375.75;;;;
2019/07/05 05:15:13;;;;;;;7.000001;6.4;;;;;;;15.75;68.83691;95382.64;;;;
2019/07/05 05:16:14;;;;;;;7.000001;6.4;;;;;;;15.75;68.83691;95382.64;;;;
2019/07/05 05:17:15;;;;;;;7.000001;6.4;;;;;;;15.75;68.83691;95382.64;;;;
2019/07/05 05:18:16;;;;;;;7.000001;6.4;;;;;;;15.75;68.83691;95382.64;;;;
2019/07/05 05:19:17;;;;;;;7.000001;6.4;;;;;;;15.75;68.83691;95382.64;;;;
2019/07/05 05:20:18;;;;;;;7.000001;6.4;;;;;;;15.75;68.83691;95382.64;;;;
2019/07/05 05:21:19;;;;;;;7.000001;6.4;;;;;;;15.75;68.83691;95382.64;;;;
2019/07/05 05:22:20;;;;;;;7.000001;6.4;;;;;;;15.75;68.83691;95382.64;;;;
2019/07/05 05:23:21;;;;;;;7.000001;6.4;;;;;;;15.75;68.83691;95382.64;;;;
2019/07/05 05:24:22;;;;;;;7.000001;6.4;;;;;;;15.75;68.83691;95382.64;;;;
2019/07/05 05:25:24;;;;;;;7.000001;6.4;;;;;;;15.75;68.83691;95382.64;;;;
2019/07/05 05:26:25;;;;;;;8.749999;6.55;;;;;;;16.52;68.49023;95383.04;;;;
2019/07/05 05:27:26;;;;;;;8.749999;6.55;;;;;;;16.52;68.49023;95383.04;;;;
2019/07/05 05:28:27;;;;;;;8.749999;6.55;;;;;;;16.52;68.49023;95383.04;;;;
2019/07/05 05:29:28;;;;;;;8.749999;6.55;;;;;;;16.52;68.49023;95383.04;;;;
2019/07/05 05:30:29;;;;;;;8.749999;6.55;;;;;;;16.52;68.49023;95383.04;;;;
2019/07/05 05:31:30;;;;;;;8.749999;6.55;;;;;;;16.52;68.49023;95383.04;;;;
2019/07/05 05:32:31;;;;;;;8.749999;6.55;;;;;;;16.52;68.49023;95383.04;;;;
2019/07/05 05:33:32;;;;;;;8.749999;6.55;;;;;;;16.52;68.49023;95383.04;;;;
2019/07/05 05:34:33;;;;;;;8.749999;6.55;;;;;;;16.52;68.49023;95383.04;;;;
2019/07/05 05:35:35;;;;;;;8.749999;6.55;;;;;;;16.52;68.49023;95383.04;;;;